Time;durP1;ratioP1;P1;durP2;ratioP2;P2;SDS_P1;SDS_P2;PMS_P1;PMS_P2;Temp;Humidity;BMP_temperature;BMP_pressure;BME280_temperature;BME280_humidity;BME280_pressure;Samples;Min_cycle;Max_cycle;Signal;HPM_P1;HPM_P2
2021/01/30 00:01:57;;;;;;;3.87;2.70;;;7.90;90.40;;;;;;5002364;28;20196;-78
2021/01/30 00:04:23;;;;;;;6.13;2.57;;;7.90;90.40;;;;;;4994022;28;20168;-77
2021/01/30 00:06:50;;;;;;;7.83;2.20;;;7.80;90.40;;;;;;4992915;28;20210;-76
2021/01/30 00:09:17;;;;;;;5.87;2.30;;;7.90;90.40;;;;;;4993239;28;20172;-76
2021/01/30 00:11:47;;;;;;;4.17;2.00;;;7.90;90.40;;;;;;4996220;28;20411;-77
2021/01/30 00:14:13;;;;;;;16.80;3.77;;;7.90;90.40;;;;;;4995912;28;20423;-77
2021/01/30 00:16:39;;;;;;;6.73;3.10;;;7.90;90.40;;;;;;4993514;28;20425;-78
2021/01/30 00:19:04;;;;;;;3.10;2.00;;;7.90;90.40;;;;;;4994400;28;20176;-76
2021/01/30 00:21:30;;;;;;;4.70;2.90;;;7.80;90.40;;;;;;4997003;28;20227;-78
2021/01/30 00:23:55;;;;;;;7.73;3.03;;;7.80;90.50;;;;;;4995349;28;20187;-77
2021/01/30 00:26:21;;;;;;;5.90;2.87;;;7.80;90.60;;;;;;4994808;28;20174;-78
2021/01/30 00:28:47;;;;;;;5.60;3.00;;;7.80;90.70;;;;;;4993598;28;20622;-77
2021/01/30 00:31:12;;;;;;;7.37;3.27;;;7.80;90.80;;;;;;4995969;28;20164;-79
2021/01/30 00:33:38;;;;;;;7.00;3.30;;;7.70;90.80;;;;;;5001906;28;20211;-78
2021/01/30 00:36:04;;;;;;;11.87;3.00;;;7.70;91.00;;;;;;4994386;28;20179;-77
2021/01/30 00:38:29;;;;;;;3.20;2.47;;;7.70;91.00;;;;;;4998154;28;20167;-77
2021/01/30 00:40:55;;;;;;;10.60;3.10;;;7.70;91.20;;;;;;4996066;28;20414;-77
2021/01/30 00:43:21;;;;;;;5.20;2.93;;;7.60;91.20;;;;;;4994073;28;20234;-76
2021/01/30 00:45:47;;;;;;;4.33;3.27;;;7.60;91.30;;;;;;4993703;28;20172;-78
2021/01/30 00:48:13;;;;;;;7.10;3.37;;;7.60;91.40;;;;;;4992724;28;20757;-77
2021/01/30 00:50:38;;;;;;;7.20;2.90;;;7.60;91.40;;;;;;4993727;28;20255;-79
2021/01/30 00:53:04;;;;;;;4.50;2.73;;;7.60;91.50;;;;;;4995279;28;20194;-77
2021/01/30 00:55:41;;;;;;;6.40;3.30;;;7.50;91.50;;;;;;4994849;28;20171;-78
2021/01/30 00:58:07;;;;;;;6.60;3.40;;;7.50;91.60;;;;;;4995667;28;20836;-77
2021/01/30 01:00:34;;;;;;;6.67;2.70;;;7.50;91.70;;;;;;4996967;28;20411;-78
2021/01/30 01:03:03;;;;;;;4.73;3.30;;;7.40;91.70;;;;;;4996180;28;20466;-78
2021/01/30 01:05:40;;;;;;;8.50;4.00;;;7.40;91.80;;;;;;5013256;28;20440;-79
2021/01/30 01:08:06;;;;;;;14.60;3.47;;;7.40;91.90;;;;;;4997916;28;20920;-78
2021/01/30 01:10:32;;;;;;;6.00;3.40;;;7.40;91.90;;;;;;4998641;28;20168;-79
2021/01/30 01:12:57;;;;;;;6.20;3.53;;;7.40;91.80;;;;;;4996327;28;20203;-78
2021/01/30 01:15:23;;;;;;;5.40;3.13;;;7.40;91.90;;;;;;5000793;28;20221;-78
2021/01/30 01:17:49;;;;;;;6.17;3.03;;;7.40;91.90;;;;;;4998069;28;20176;-78
2021/01/30 01:20:19;;;;;;;10.60;3.50;;;7.30;91.90;;;;;;4997364;28;20179;-77
2021/01/30 01:22:45;;;;;;;6.20;3.30;;;7.30;91.80;;;;;;4995093;28;20474;-77
2021/01/30 01:25:11;;;;;;;8.00;3.30;;;7.30;91.90;;;;;;4996940;28;20810;-78
2021/01/30 01:27:37;;;;;;;6.13;3.30;;;7.30;92.00;;;;;;4996544;28;20620;-77
2021/01/30 01:30:07;;;;;;;5.70;3.50;;;7.30;92.00;;;;;;4994523;28;20449;-77
2021/01/30 01:32:33;;;;;;;6.50;3.80;;;7.30;92.10;;;;;;4995369;28;20450;-78
2021/01/30 01:34:58;;;;;;;7.40;4.33;;;7.30;92.20;;;;;;4996703;28;20495;-77
2021/01/30 01:37:24;;;;;;;7.87;4.10;;;7.30;92.20;;;;;;4997848;28;20184;-77
2021/01/30 01:39:50;;;;;;;9.20;4.17;;;7.30;92.20;;;;;;4997577;28;20203;-78
2021/01/30 01:42:21;;;;;;;9.30;4.17;;;7.30;92.30;;;;;;4996593;28;20527;-77
2021/01/30 01:44:48;;;;;;;11.43;4.17;;;7.20;92.30;;;;;;4996356;28;20179;-78
2021/01/30 01:47:38;;;;;;;10.33;3.53;;;7.20;92.40;;;;;;4996125;28;20410;-78
2021/01/30 01:50:28;;;;;;;10.33;4.73;;;7.20;92.40;;;;;;4996747;28;20417;-78
2021/01/30 01:53:02;;;;;;;8.47;4.87;;;7.20;92.50;;;;;;4996646;28;20434;-78
2021/01/30 01:55:28;;;;;;;13.73;5.30;;;7.20;92.60;;;;;;4996153;28;20518;-79
2021/01/30 01:57:57;;;;;;;9.60;4.60;;;7.20;92.50;;;;;;4995408;28;20458;-78
2021/01/30 02:00:24;;;;;;;13.60;4.53;;;7.20;92.50;;;;;;4996890;28;20785;-78
2021/01/30 02:02:54;;;;;;;8.40;5.67;;;7.10;92.50;;;;;;5000210;28;20466;-78
2021/01/30 02:05:35;;;;;;;11.47;5.40;;;7.10;92.50;;;;;;4997820;28;21116;-78
2021/01/30 02:08:08;;;;;;;13.73;5.83;;;7.00;92.50;;;;;;4996083;28;20498;-79
2021/01/30 02:10:46;;;;;;;9.90;6.67;;;7.00;92.70;;;;;;4996388;28;20403;-78
2021/01/30 02:13:21;;;;;;;10.17;5.47;;;7.00;92.80;;;;;;4995877;28;20438;-78
2021/01/30 02:15:50;;;;;;;12.40;6.10;;;7.00;92.80;;;;;;4994825;28;20418;-77
2021/01/30 02:18:44;;;;;;;10.13;5.90;;;7.00;92.80;;;;;;4993847;28;20461;-77
2021/01/30 02:21:28;;;;;;;12.30;5.50;;;7.00;92.60;;;;;;4995275;28;20445;-77
2021/01/30 02:24:18;;;;;;;7.40;6.07;;;6.90;92.30;;;;;;4996653;28;20520;-77
2021/01/30 02:27:09;;;;;;;6.80;5.53;;;6.80;91.60;;;;;;4994358;28;20417;-77
2021/01/30 02:29:53;;;;;;;7.03;4.73;;;6.70;91.60;;;;;;4976843;28;20425;-77
2021/01/30 02:32:25;;;;;;;6.63;5.03;;;6.60;91.50;;;;;;4993278;28;20500;-77
2021/01/30 02:35:11;;;;;;;14.23;4.37;;;6.60;91.50;;;;;;4994819;28;20441;-77
2021/01/30 02:38:00;;;;;;;7.00;4.27;;;6.50;90.90;;;;;;4994263;28;20810;-77
2021/01/30 02:40:28;;;;;;;13.47;5.40;;;6.40;90.90;;;;;;4993701;28;20411;-77
2021/01/30 02:43:02;;;;;;;14.63;9.77;;;6.40;90.80;;;;;;4993281;28;20459;-76
2021/01/30 02:45:30;;;;;;;17.73;11.50;;;6.30;90.40;;;;;;4995456;28;20560;-76
2021/01/30 02:48:08;;;;;;;18.90;13.30;;;6.30;90.10;;;;;;4996280;28;20757;-76
2021/01/30 02:50:44;;;;;;;23.87;14.57;;;6.20;89.90;;;;;;5001805;28;20422;-76
2021/01/30 02:53:13;;;;;;;26.23;14.03;;;6.10;89.70;;;;;;5003120;28;20508;-77
2021/01/30 02:55:39;;;;;;;24.10;14.00;;;6.00;89.90;;;;;;5003122;28;20418;-77
2021/01/30 02:58:06;;;;;;;27.73;15.93;;;5.90;90.00;;;;;;4998363;28;20411;-76
2021/01/30 03:00:34;;;;;;;30.93;17.00;;;5.90;89.50;;;;;;5011212;28;20175;-77
2021/01/30 03:02:59;;;;;;;28.40;18.20;;;5.80;89.60;;;;;;5007225;28;20446;-77
2021/01/30 03:05:25;;;;;;;39.80;18.97;;;5.70;89.40;;;;;;5015075;28;20500;-76
2021/01/30 03:08:12;;;;;;;32.37;18.77;;;5.60;89.60;;;;;;5010203;28;20288;-76
2021/01/30 03:10:54;;;;;;;34.07;18.33;;;5.50;90.00;;;;;;4996055;28;20435;-77
2021/01/30 03:13:30;;;;;;;42.80;19.80;;;5.40;90.10;;;;;;4995065;28;20949;-77
2021/01/30 03:16:08;;;;;;;26.70;16.93;;;5.30;90.10;;;;;;4999384;28;20418;-76
2021/01/30 03:18:37;;;;;;;38.53;17.93;;;5.30;90.20;;;;;;5014328;28;20483;-76
2021/01/30 03:21:05;;;;;;;25.27;14.83;;;5.20;90.20;;;;;;5029767;28;20450;-77
2021/01/30 03:23:31;;;;;;;28.43;17.27;;;5.20;90.10;;;;;;5013204;28;20463;-77
2021/01/30 03:26:01;;;;;;;21.87;15.37;;;5.10;89.40;;;;;;5001512;28;20413;-76
2021/01/30 03:28:27;;;;;;;23.87;14.90;;;5.00;89.90;;;;;;4994431;28;20410;-76
2021/01/30 03:30:53;;;;;;;21.87;11.07;;;4.90;89.80;;;;;;4995489;28;20419;-76
2021/01/30 03:33:19;;;;;;;19.23;11.87;;;4.90;88.70;;;;;;4993208;28;20727;-76
2021/01/30 03:35:44;;;;;;;27.60;11.50;;;4.80;88.80;;;;;;4993643;28;20427;-77
2021/01/30 03:38:10;;;;;;;22.63;11.80;;;4.70;88.70;;;;;;4992940;28;20172;-76
2021/01/30 03:40:38;;;;;;;25.37;11.83;;;4.60;89.10;;;;;;4994021;28;20163;-77
2021/01/30 03:43:04;;;;;;;20.27;10.40;;;4.60;89.30;;;;;;4991432;28;20203;-77
2021/01/30 03:45:31;;;;;;;22.87;11.27;;;4.50;90.10;;;;;;4992862;28;20415;-77
2021/01/30 03:47:57;;;;;;;28.33;13.20;;;4.50;90.10;;;;;;5007419;28;20975;-76
2021/01/30 03:50:23;;;;;;;22.73;11.20;;;4.50;90.30;;;;;;4992977;28;20502;-77
2021/01/30 03:52:49;;;;;;;25.37;12.30;;;4.50;90.30;;;;;;4992027;28;20944;-77
2021/01/30 03:55:16;;;;;;;26.67;13.40;;;4.50;90.30;;;;;;4992643;28;20402;-77
2021/01/30 03:57:42;;;;;;;19.47;12.03;;;4.50;90.70;;;;;;5007142;28;20426;-76
2021/01/30 04:00:11;;;;;;;20.27;11.63;;;4.40;90.70;;;;;;4973800;28;20427;-76
2021/01/30 04:02:40;;;;;;;27.03;15.23;;;4.40;90.60;;;;;;5007488;28;20295;-79
2021/01/30 04:05:12;;;;;;;25.43;14.50;;;4.40;90.70;;;;;;4992530;28;20581;-76
2021/01/30 04:07:38;;;;;;;18.23;11.77;;;4.30;90.60;;;;;;4991928;28;20407;-76
2021/01/30 04:10:07;;;;;;;21.77;13.20;;;4.20;90.50;;;;;;5008089;28;20415;-76
2021/01/30 04:12:34;;;;;;;22.13;14.30;;;4.20;90.70;;;;;;4992681;28;20709;-77
2021/01/30 04:15:00;;;;;;;24.53;12.13;;;4.20;90.80;;;;;;4993008;28;20414;-76
2021/01/30 04:17:26;;;;;;;21.33;11.77;;;4.10;90.70;;;;;;4993155;28;20418;-76
2021/01/30 04:19:52;;;;;;;25.77;13.07;;;4.10;90.70;;;;;;4993685;28;20943;-77
2021/01/30 04:22:18;;;;;;;20.30;12.97;;;4.10;90.70;;;;;;5000126;28;20463;-76
2021/01/30 04:24:44;;;;;;;21.97;12.90;;;4.00;90.70;;;;;;4992455;28;20414;-76
2021/01/30 04:27:12;;;;;;;21.23;13.00;;;4.00;90.80;;;;;;4992474;28;20195;-76
2021/01/30 04:29:39;;;;;;;22.10;13.30;;;4.00;90.70;;;;;;4991381;28;20498;-76
2021/01/30 04:32:05;;;;;;;21.57;11.47;;;4.00;90.50;;;;;;4991574;28;20427;-77
2021/01/30 04:34:30;;;;;;;20.23;12.43;;;3.90;90.30;;;;;;4991416;28;20474;-75
2021/01/30 04:36:56;;;;;;;17.10;11.20;;;3.90;90.10;;;;;;4993815;28;20411;-76
2021/01/30 04:39:22;;;;;;;18.47;13.50;;;3.90;89.60;;;;;;4992741;28;20182;-76
2021/01/30 04:41:55;;;;;;;22.50;14.23;;;3.80;88.70;;;;;;4991726;28;20496;-75
2021/01/30 04:44:31;;;;;;;24.00;13.10;;;3.80;88.30;;;;;;4992429;28;20787;-75
2021/01/30 04:47:24;;;;;;;20.33;12.70;;;3.80;88.40;;;;;;4990994;28;20967;-76
2021/01/30 04:50:11;;;;;;;30.33;15.00;;;3.70;88.60;;;;;;4992079;28;20438;-76
2021/01/30 04:52:52;;;;;;;23.27;13.40;;;3.70;88.90;;;;;;4992490;28;20430;-77
2021/01/30 04:55:38;;;;;;;20.73;12.47;;;3.70;89.10;;;;;;4992305;28;20457;-77
2021/01/30 04:58:09;;;;;;;22.97;12.70;;;3.70;89.00;;;;;;4991772;28;20403;-76
2021/01/30 05:00:43;;;;;;;21.33;12.93;;;3.70;89.30;;;;;;4992040;28;20883;-76
2021/01/30 05:03:38;;;;;;;21.43;13.30;;;3.60;88.80;;;;;;4991493;28;20477;-76
2021/01/30 05:06:23;;;;;;;20.13;11.53;;;3.60;89.20;;;;;;4992070;28;20413;-76
2021/01/30 05:09:01;;;;;;;22.53;12.50;;;3.60;89.40;;;;;;4991622;28;21063;-76
2021/01/30 05:11:29;;;;;;;25.10;13.73;;;3.60;89.50;;;;;;4992017;28;20429;-76
2021/01/30 05:14:25;;;;;;;23.07;13.90;;;3.60;89.50;;;;;;4991743;28;20431;-76
2021/01/30 05:17:08;;;;;;;22.37;13.70;;;3.60;90.00;;;;;;4991692;28;20781;-76
2021/01/30 05:19:40;;;;;;;24.43;12.33;;;3.50;89.40;;;;;;4990839;28;20465;-77
2021/01/30 05:22:08;;;;;;;20.97;13.27;;;3.50;89.50;;;;;;4990350;28;20489;-73
2021/01/30 05:24:34;;;;;;;22.67;13.80;;;3.50;89.40;;;;;;4991048;28;20407;-72
2021/01/30 05:27:20;;;;;;;23.03;13.17;;;3.50;89.20;;;;;;4991145;28;20876;-72
2021/01/30 05:30:03;;;;;;;25.00;14.90;;;3.50;89.10;;;;;;4991161;28;20481;-71
2021/01/30 05:32:49;;;;;;;21.93;13.73;;;3.40;88.60;;;;;;4991432;28;20562;-71
2021/01/30 05:35:23;;;;;;;19.37;12.90;;;3.40;88.60;;;;;;4991739;28;20867;-71
2021/01/30 05:38:04;;;;;;;19.57;13.87;;;3.40;88.50;;;;;;4991381;28;20473;-71
2021/01/30 05:40:32;;;;;;;20.53;13.30;;;3.40;88.80;;;;;;4991889;28;20498;-71
2021/01/30 05:43:22;;;;;;;19.70;12.47;;;3.40;89.10;;;;;;4990624;28;20462;-71
2021/01/30 05:45:54;;;;;;;21.30;12.43;;;3.40;88.30;;;;;;4993720;28;20425;-71
2021/01/30 05:48:27;;;;;;;18.23;11.40;;;3.50;88.50;;;;;;4994812;28;20399;-71
2021/01/30 05:51:06;;;;;;;21.90;11.87;;;3.50;88.60;;;;;;4994911;28;20422;-71
2021/01/30 05:53:32;;;;;;;17.87;10.50;;;3.50;88.00;;;;;;4995171;28;20426;-71
2021/01/30 05:55:58;;;;;;;20.60;12.50;;;3.50;87.60;;;;;;4994879;28;20907;-71
2021/01/30 05:58:25;;;;;;;18.70;11.77;;;3.50;88.20;;;;;;4994432;28;20820;-70
2021/01/30 06:01:16;;;;;;;18.50;11.37;;;3.50;87.50;;;;;;4994161;28;20403;-71
2021/01/30 06:03:55;;;;;;;21.57;11.90;;;3.50;87.50;;;;;;4994082;28;20528;-70
2021/01/30 06:06:22;;;;;;;18.40;11.60;;;3.50;87.10;;;;;;4994429;28;20407;-71
2021/01/30 06:09:26;;;;;;;18.13;11.17;;;3.50;86.50;;;;;;4994734;28;20422;-71
2021/01/30 06:11:52;;;;;;;21.23;11.87;;;3.40;86.30;;;;;;4995607;28;20428;-70
2021/01/30 06:14:44;;;;;;;17.70;11.70;;;3.40;86.30;;;;;;4994677;28;20505;-72
2021/01/30 06:17:22;;;;;;;23.60;13.03;;;3.40;86.50;;;;;;4994947;28;20287;-73
2021/01/30 06:20:03;;;;;;;15.10;10.03;;;3.40;86.80;;;;;;4995139;28;20450;-71
2021/01/30 06:22:28;;;;;;;18.10;11.80;;;3.30;86.50;;;;;;4994780;28;20594;-73
2021/01/30 06:24:54;;;;;;;21.17;12.97;;;3.30;86.90;;;;;;4995122;28;20465;-73
2021/01/30 06:27:38;;;;;;;22.77;12.80;;;3.30;86.30;;;;;;5003628;28;20163;-73
2021/01/30 06:30:11;;;;;;;20.30;12.60;;;3.20;86.70;;;;;;4994707;28;20164;-73
2021/01/30 06:32:46;;;;;;;22.20;11.83;;;3.20;87.20;;;;;;4994149;28;20979;-73
2021/01/30 06:35:17;;;;;;;19.90;10.90;;;3.20;87.40;;;;;;4993817;28;20421;-73
2021/01/30 06:37:54;;;;;;;18.03;11.03;;;3.30;87.10;;;;;;4993841;28;20613;-73
2021/01/30 06:40:25;;;;;;;17.37;9.83;;;3.30;87.00;;;;;;4993922;28;20410;-73
2021/01/30 06:43:01;;;;;;;21.27;11.17;;;3.30;86.90;;;;;;4994187;28;20997;-73
2021/01/30 06:45:33;;;;;;;15.93;8.67;;;3.30;87.10;;;;;;4993584;28;20411;-71
2021/01/30 06:48:00;;;;;;;11.17;7.30;;;3.30;86.40;;;;;;4993510;28;20924;-71
2021/01/30 06:50:38;;;;;;;14.47;7.40;;;3.30;85.80;;;;;;4993771;28;20438;-73
2021/01/30 06:53:19;;;;;;;12.30;8.20;;;3.30;85.80;;;;;;4993775;28;20509;-73
2021/01/30 06:55:45;;;;;;;10.93;7.87;;;3.30;85.60;;;;;;4992800;28;20414;-73
2021/01/30 06:58:27;;;;;;;9.93;7.17;;;3.30;86.20;;;;;;4994121;28;20904;-72
2021/01/30 07:01:15;;;;;;;11.67;7.00;;;3.30;85.10;;;;;;4993753;28;20422;-72
2021/01/30 07:04:00;;;;;;;13.30;7.40;;;3.30;85.30;;;;;;4994007;28;20462;-73
2021/01/30 07:06:40;;;;;;;13.53;7.50;;;3.20;84.10;;;;;;4994201;28;20415;-73
2021/01/30 07:09:12;;;;;;;13.80;8.50;;;3.20;84.00;;;;;;5008915;28;20417;-72
2021/01/30 07:11:54;;;;;;;10.80;7.10;;;3.20;82.90;;;;;;4993827;28;20414;-74
2021/01/30 07:14:29;;;;;;;12.70;7.80;;;3.20;83.20;;;;;;4992900;28;20411;-73
2021/01/30 07:17:11;;;;;;;12.30;7.60;;;3.20;83.00;;;;;;4993725;28;20403;-73
2021/01/30 07:20:03;;;;;;;15.37;8.40;;;3.20;83.00;;;;;;4993584;28;20398;-72
2021/01/30 07:22:53;;;;;;;14.67;9.10;;;3.10;82.90;;;;;;4992827;28;20454;-74
2021/01/30 07:25:45;;;;;;;15.63;9.73;;;3.20;83.00;;;;;;4993874;28;20426;-73
2021/01/30 07:28:41;;;;;;;20.70;11.53;;;3.10;82.30;;;;;;4994921;28;20418;-71
2021/01/30 07:31:33;;;;;;;19.30;10.83;;;3.10;81.80;;;;;;5008705;28;20410;-73
2021/01/30 07:34:17;;;;;;;22.07;12.47;;;3.10;81.70;;;;;;5010894;28;20426;-71
2021/01/30 07:37:06;;;;;;;23.20;11.57;;;3.00;81.50;;;;;;5001421;28;20403;-73
2021/01/30 07:39:41;;;;;;;18.17;10.60;;;3.00;81.60;;;;;;4994735;28;20414;-73
2021/01/30 07:42:19;;;;;;;22.93;13.70;;;3.00;81.30;;;;;;4998240;28;20537;-73
2021/01/30 07:44:48;;;;;;;19.60;12.17;;;2.90;81.40;;;;;;5008314;28;20422;-73
2021/01/30 07:47:23;;;;;;;20.23;12.47;;;2.90;81.60;;;;;;5013660;28;20410;-72
2021/01/30 07:49:57;;;;;;;23.00;13.67;;;2.90;81.40;;;;;;4994862;28;20783;-71
2021/01/30 07:52:27;;;;;;;21.03;13.60;;;3.00;81.50;;;;;;4994694;28;20437;-73
2021/01/30 07:54:55;;;;;;;19.67;12.00;;;3.00;81.30;;;;;;4994949;28;20668;-73
2021/01/30 07:57:36;;;;;;;24.30;13.87;;;2.90;80.50;;;;;;4993144;28;20465;-73
2021/01/30 08:00:30;;;;;;;20.20;12.87;;;2.90;80.80;;;;;;4993785;28;20419;-71
2021/01/30 08:03:16;;;;;;;19.87;13.37;;;2.90;80.50;;;;;;4991630;28;21008;-73
2021/01/30 08:06:08;;;;;;;19.73;12.20;;;2.80;80.80;;;;;;4993243;28;20419;-71
2021/01/30 08:08:58;;;;;;;21.23;11.70;;;2.80;80.90;;;;;;4992500;28;20501;-73
2021/01/30 08:11:27;;;;;;;22.93;14.00;;;2.80;81.00;;;;;;5008226;28;20422;-74
2021/01/30 08:14:19;;;;;;;22.07;13.47;;;2.80;80.70;;;;;;4993329;28;20590;-73
2021/01/30 08:17:23;;;;;;;20.90;12.87;;;2.80;80.70;;;;;;4992590;28;20506;-72
2021/01/30 08:20:02;;;;;;;23.20;13.67;;;2.90;81.00;;;;;;4993326;28;20415;-71
2021/01/30 08:22:40;;;;;;;23.67;12.53;;;2.80;80.40;;;;;;4992646;28;20462;-72
2021/01/30 08:25:19;;;;;;;17.13;12.77;;;2.80;80.80;;;;;;4991477;28;20422;-73
2021/01/30 08:27:48;;;;;;;24.27;13.57;;;2.90;80.70;;;;;;4992823;28;20762;-72
2021/01/30 08:30:19;;;;;;;21.90;11.47;;;2.90;80.90;;;;;;4992652;28;20414;-72
2021/01/30 08:33:01;;;;;;;22.00;12.97;;;2.90;80.00;;;;;;4992690;28;20465;-72
2021/01/30 08:35:26;;;;;;;22.90;12.73;;;2.90;80.20;;;;;;4992250;28;20819;-70
2021/01/30 08:38:28;;;;;;;19.93;12.10;;;2.90;79.90;;;;;;4991542;28;20427;-70
2021/01/30 08:41:02;;;;;;;23.80;13.10;;;2.90;80.60;;;;;;4994945;28;20258;-71
2021/01/30 08:43:47;;;;;;;28.27;14.67;;;2.90;79.90;;;;;;4998121;28;20470;-71
2021/01/30 08:46:27;;;;;;;22.77;14.17;;;3.00;79.60;;;;;;4998392;28;20936;-73
2021/01/30 08:49:15;;;;;;;28.10;14.73;;;3.00;79.70;;;;;;5012981;28;20848;-73
2021/01/30 08:51:42;;;;;;;22.20;12.90;;;2.90;78.90;;;;;;4999252;28;20417;-73
2021/01/30 08:54:26;;;;;;;26.03;12.57;;;3.00;79.40;;;;;;4999748;28;20446;-77
2021/01/30 08:56:59;;;;;;;20.70;12.67;;;3.00;79.70;;;;;;5000185;28;20434;-77
2021/01/30 08:59:44;;;;;;;23.00;13.33;;;3.00;79.60;;;;;;4992408;28;20406;-76
2021/01/30 09:02:33;;;;;;;24.70;13.77;;;3.00;79.10;;;;;;5014690;28;20469;-76
2021/01/30 09:05:22;;;;;;;27.73;14.17;;;3.00;79.00;;;;;;5002426;28;20590;-77
2021/01/30 09:07:58;;;;;;;22.60;13.63;;;3.00;79.40;;;;;;4974209;28;20507;-77
2021/01/30 09:10:33;;;;;;;16.87;10.13;;;3.00;78.60;;;;;;4973618;28;20415;-77
2021/01/30 09:13:15;;;;;;;23.10;12.90;;;3.00;78.60;;;;;;4985543;28;20460;-77
2021/01/30 09:15:41;;;;;;;20.87;12.90;;;2.90;77.80;;;;;;4991959;28;20426;-77
2021/01/30 09:18:22;;;;;;;22.73;13.20;;;3.00;78.30;;;;;;4991412;28;20402;-77
2021/01/30 09:20:53;;;;;;;20.50;12.33;;;3.00;78.80;;;;;;4997271;28;20178;-77
2021/01/30 09:23:31;;;;;;;20.90;10.63;;;3.00;78.60;;;;;;4996051;28;20474;-77
2021/01/30 09:26:01;;;;;;;23.87;12.17;;;3.00;78.00;;;;;;4998505;28;20434;-77
2021/01/30 09:28:30;;;;;;;17.70;11.47;;;3.00;78.10;;;;;;4998219;28;20398;-77
2021/01/30 09:31:02;;;;;;;23.13;12.30;;;3.00;78.00;;;;;;4996225;28;20462;-77
2021/01/30 09:33:35;;;;;;;19.20;11.10;;;3.00;77.70;;;;;;4994714;28;20960;-77
2021/01/30 09:36:15;;;;;;;18.67;11.23;;;3.10;77.80;;;;;;4996961;28;20834;-77
2021/01/30 09:38:45;;;;;;;20.77;12.27;;;3.20;78.50;;;;;;4996240;28;20411;-77
2021/01/30 09:41:30;;;;;;;20.20;11.33;;;3.20;78.70;;;;;;4996019;28;20427;-77
2021/01/30 09:44:05;;;;;;;21.17;11.60;;;3.30;78.50;;;;;;4995631;28;20466;-77
2021/01/30 09:46:41;;;;;;;30.23;13.40;;;3.40;77.60;;;;;;4995983;28;20421;-78
2021/01/30 09:49:17;;;;;;;22.87;13.00;;;3.40;77.90;;;;;;4996495;28;20480;-77
2021/01/30 09:51:43;;;;;;;18.13;11.70;;;3.40;77.40;;;;;;4992223;28;20445;-77
2021/01/30 09:54:15;;;;;;;21.37;11.53;;;3.50;77.70;;;;;;4995441;28;20912;-77
2021/01/30 09:56:42;;;;;;;16.10;11.53;;;3.50;77.60;;;;;;4994212;28;20423;-76
2021/01/30 09:59:08;;;;;;;16.77;11.60;;;3.60;75.90;;;;;;4998498;28;20484;-78
2021/01/30 10:01:36;;;;;;;15.30;10.07;;;3.50;75.10;;;;;;4996630;28;20407;-77
2021/01/30 10:04:24;;;;;;;19.37;12.30;;;3.50;75.60;;;;;;4995424;28;20450;-76
2021/01/30 10:06:53;;;;;;;20.27;10.63;;;3.60;75.60;;;;;;4997942;28;20493;-77
2021/01/30 10:09:23;;;;;;;21.70;13.13;;;3.60;75.80;;;;;;4996393;28;20507;-76
2021/01/30 10:11:54;;;;;;;16.77;11.63;;;3.60;76.00;;;;;;4995638;28;20419;-77
2021/01/30 10:14:25;;;;;;;18.00;11.13;;;3.70;75.10;;;;;;4993921;28;20415;-77
2021/01/30 10:17:05;;;;;;;17.57;11.87;;;3.80;75.20;;;;;;4994732;28;20414;-76
2021/01/30 10:19:33;;;;;;;17.93;10.60;;;3.90;76.10;;;;;;4995313;28;20406;-76
2021/01/30 10:22:10;;;;;;;16.50;10.33;;;3.80;74.10;;;;;;4994963;28;20482;-77
2021/01/30 10:24:36;;;;;;;17.53;10.00;;;3.80;74.40;;;;;;4995215;28;20477;-77
2021/01/30 10:27:21;;;;;;;17.90;10.60;;;3.80;74.90;;;;;;4994705;28;20415;-78
2021/01/30 10:29:47;;;;;;;16.23;9.87;;;3.80;74.40;;;;;;4995473;28;20664;-77
2021/01/30 10:32:36;;;;;;;17.20;9.77;;;3.80;73.50;;;;;;4995326;28;20439;-76
2021/01/30 10:35:07;;;;;;;15.30;10.07;;;3.80;73.80;;;;;;4991299;28;20530;-77
2021/01/30 10:37:44;;;;;;;20.40;10.70;;;3.90;73.40;;;;;;4995055;28;20468;-78
2021/01/30 10:40:18;;;;;;;16.70;10.17;;;3.90;73.70;;;;;;4995171;28;20418;-77
2021/01/30 10:42:44;;;;;;;13.97;8.97;;;4.00;73.30;;;;;;4996576;28;20462;-77
2021/01/30 10:45:10;;;;;;;14.73;9.80;;;4.00;72.00;;;;;;4997912;28;20423;-78
2021/01/30 10:47:36;;;;;;;16.07;9.20;;;4.00;72.40;;;;;;4998925;28;20407;-77
2021/01/30 10:50:14;;;;;;;13.33;8.80;;;4.00;71.80;;;;;;4997021;28;20506;-78
2021/01/30 10:52:39;;;;;;;16.30;9.87;;;3.90;72.30;;;;;;4996119;28;20613;-78
2021/01/30 10:55:41;;;;;;;16.63;9.47;;;3.90;72.30;;;;;;4994357;28;20415;-77
2021/01/30 10:58:12;;;;;;;13.03;7.93;;;3.90;72.80;;;;;;4973524;28;20235;-77
2021/01/30 11:00:38;;;;;;;14.07;9.30;;;4.00;72.10;;;;;;4976227;28;20781;-78
2021/01/30 11:03:40;;;;;;;9.70;7.20;;;4.00;71.90;;;;;;4974082;28;20478;-77
2021/01/30 11:06:32;;;;;;;9.80;6.90;;;4.00;70.60;;;;;;4976378;28;20407;-77
2021/01/30 11:09:01;;;;;;;10.20;6.63;;;3.90;70.30;;;;;;4975274;28;20455;-77
2021/01/30 11:11:30;;;;;;;11.43;7.90;;;3.90;71.20;;;;;;4990954;28;20490;-76
2021/01/30 11:13:57;;;;;;;12.20;6.47;;;3.90;71.10;;;;;;4993279;28;20889;-76
2021/01/30 11:16:32;;;;;;;12.17;6.90;;;3.90;71.50;;;;;;4994148;28;20422;-77
2021/01/30 11:18:58;;;;;;;12.60;7.80;;;4.00;70.90;;;;;;4995018;28;20411;-77
2021/01/30 11:21:37;;;;;;;10.77;7.50;;;3.90;70.50;;;;;;4995126;28;20449;-78
2021/01/30 11:24:46;;;;;;;10.03;6.77;;;3.90;71.30;;;;;;4995767;28;20182;-76
2021/01/30 11:27:41;;;;;;;10.43;6.83;;;4.00;71.50;;;;;;4994168;28;20438;-77
2021/01/30 11:30:15;;;;;;;10.40;6.67;;;4.00;70.80;;;;;;4994439;28;20955;-77
2021/01/30 11:32:53;;;;;;;11.33;6.93;;;4.10;71.20;;;;;;4993166;28;20452;-77
2021/01/30 11:35:36;;;;;;;9.00;6.20;;;4.20;70.30;;;;;;4996625;28;20398;-76
2021/01/30 11:38:17;;;;;;;8.17;6.00;;;4.30;70.10;;;;;;4993862;28;20921;-77
2021/01/30 11:40:44;;;;;;;9.10;6.13;;;4.20;69.20;;;;;;4994803;28;20415;-76
2021/01/30 11:43:10;;;;;;;10.80;6.13;;;4.20;69.70;;;;;;4993427;28;20480;-76
2021/01/30 11:45:36;;;;;;;9.43;6.47;;;4.20;70.50;;;;;;4994906;28;20407;-77
2021/01/30 11:48:01;;;;;;;10.83;7.07;;;4.10;70.30;;;;;;4996248;28;20431;-76
2021/01/30 11:50:27;;;;;;;12.70;7.33;;;4.20;70.30;;;;;;4996634;28;20160;-78
2021/01/30 11:52:53;;;;;;;12.43;7.60;;;4.10;70.60;;;;;;5008199;28;20184;-76
2021/01/30 11:55:22;;;;;;;9.90;6.80;;;4.10;70.90;;;;;;5007657;28;20175;-77
2021/01/30 11:57:47;;;;;;;7.37;5.67;;;4.20;70.90;;;;;;5007864;28;20370;-77
2021/01/30 12:00:14;;;;;;;7.67;6.17;;;4.20;71.60;;;;;;4995203;28;20469;-76
2021/01/30 12:02:41;;;;;;;11.20;7.30;;;4.20;70.50;;;;;;4995752;28;20219;-77
2021/01/30 12:05:11;;;;;;;8.43;5.83;;;4.20;70.50;;;;;;5000339;28;20486;-75
2021/01/30 12:07:37;;;;;;;10.07;6.60;;;4.20;71.30;;;;;;5010454;28;20411;-76
2021/01/30 12:10:04;;;;;;;11.00;7.00;;;4.30;70.70;;;;;;5010722;28;20446;-78
2021/01/30 12:12:30;;;;;;;9.77;6.43;;;4.40;71.70;;;;;;5008372;28;20442;-76
2021/01/30 12:14:56;;;;;;;10.37;6.87;;;4.50;71.00;;;;;;4997160;28;20418;-76
2021/01/30 12:17:41;;;;;;;10.17;7.00;;;4.50;70.90;;;;;;4996973;28;20175;-76
2021/01/30 12:20:11;;;;;;;9.40;7.50;;;4.60;71.20;;;;;;5000937;28;20176;-76
2021/01/30 12:22:37;;;;;;;10.70;6.63;;;4.60;71.20;;;;;;4995840;28;20487;-76
2021/01/30 12:25:06;;;;;;;6.50;5.67;;;4.50;70.40;;;;;;4994482;28;20411;-76
2021/01/30 12:27:31;;;;;;;8.73;6.87;;;4.50;70.90;;;;;;4994347;28;20422;-76
2021/01/30 12:29:57;;;;;;;9.93;7.23;;;4.50;71.80;;;;;;4995063;28;20426;-76
2021/01/30 12:32:23;;;;;;;10.13;6.47;;;4.50;71.40;;;;;;4995360;28;20192;-76
2021/01/30 12:34:49;;;;;;;8.00;5.77;;;4.50;72.30;;;;;;4993570;28;20172;-75
2021/01/30 12:37:14;;;;;;;9.43;6.70;;;4.60;71.00;;;;;;4993943;28;20421;-77
2021/01/30 12:39:40;;;;;;;7.13;5.00;;;4.60;71.20;;;;;;4993999;28;20239;-77
2021/01/30 12:42:06;;;;;;;9.50;5.20;;;4.60;70.50;;;;;;4994527;28;20215;-78
2021/01/30 12:44:32;;;;;;;6.77;5.60;;;4.80;71.40;;;;;;4992450;28;20191;-77
2021/01/30 12:46:58;;;;;;;6.40;4.80;;;4.80;70.60;;;;;;4993498;28;20160;-78
2021/01/30 12:49:24;;;;;;;6.37;5.40;;;4.90;70.80;;;;;;4995513;28;20394;-77
2021/01/30 12:51:49;;;;;;;5.30;3.57;;;5.10;69.70;;;;;;4995511;28;20932;-77
2021/01/30 12:54:17;;;;;;;5.07;3.40;;;5.10;67.50;;;;;;4996553;28;20491;-79
2021/01/30 12:56:44;;;;;;;4.77;3.80;;;5.00;67.50;;;;;;4999973;28;20170;-76
2021/01/30 12:59:11;;;;;;;3.50;3.10;;;5.00;67.80;;;;;;5019769;28;20439;-77
2021/01/30 13:01:37;;;;;;;4.10;3.37;;;5.00;67.00;;;;;;5001429;28;20450;-78
2021/01/30 13:04:03;;;;;;;4.77;2.90;;;5.00;67.40;;;;;;4998446;28;20837;-79
2021/01/30 13:06:30;;;;;;;5.30;3.20;;;5.10;65.80;;;;;;4998765;28;20163;-79
2021/01/30 13:08:55;;;;;;;3.73;2.70;;;5.10;65.70;;;;;;5014035;28;20784;-79
2021/01/30 13:11:21;;;;;;;3.70;2.80;;;5.00;64.10;;;;;;4999479;28;20414;-78
2021/01/30 13:13:47;;;;;;;4.87;3.43;;;4.80;64.10;;;;;;5000598;28;20430;-78
2021/01/30 13:16:13;;;;;;;2.93;2.63;;;4.70;64.80;;;;;;5000478;28;20646;-77